CDT,Max TemperatureF,Mean TemperatureF,Min TemperatureF,Max Dew PointF,MeanDew PointF,Min DewpointF,Max Humidity, Mean Humidity, Min Humidity, Max Sea Level PressureIn, Mean Sea Level PressureIn, Min Sea Level PressureIn, Max VisibilityMiles, Mean VisibilityMiles, Min VisibilityMiles, Max Wind SpeedMPH, Mean Wind SpeedMPH, Max Gust SpeedMPH,PrecipitationIn, CloudCover, Events, WindDirDegrees
2013-10-1,81,70,60,66,63,60,99,85,54,30.07,30.03,29.99,10,7,2,12,5,17,0.00,4,,211
2013-10-2,76,70,64,71,68,64,100,97,80,30.11,30.07,30.02,10,4,0,8,3,,0.00,5,Fog,186
2013-10-3,85,76,66,69,66,61,100,78,48,30.04,30.00,29.93,10,10,5,15,7,22,0.01,4,Rain-Thunderstorm,189
2013-10-4,86,74,63,70,67,63,97,80,55,30.04,30.01,29.97,10,10,10,14,4,21,0.00,3,,169
2013-10-5,79,72,66,72,68,65,100,93,75,30.01,29.95,29.85,10,8,2,15,6,21,0.17,6,Rain-Thunderstorm,170
2013-10-6,67,58,50,66,48,38,99,73,40,29.87,29.83,29.76,10,10,3,24,8,31,0.15,6,Rain-Thunderstorm,248
2013-10-7,67,55,43,48,45,42,97,77,45,30.15,30.01,29.83,10,10,5,17,8,22,0.00,4,Rain,271
2013-10-8,73,58,42,52,47,42,100,73,36,30.25,30.20,30.15,10,10,0,9,1,,0.00,0,Fog,116
2013-10-9,74,56,40,50,46,40,99,74,36,30.24,30.19,30.15,10,10,7,8,2,,0.00,0,,103
2013-10-10,77,62,46,58,53,46,98,76,45,30.19,30.13,30.07,10,10,10,6,1,,0.00,3,,89
2013-10-11,78,62,48,58,53,48,100,73,41,30.10,30.06,30.00,10,9,2,9,2,,0.00,2,,157
2013-10-12,77,64,52,62,57,50,93,77,53,30.18,30.07,30.03,10,10,7,14,3,17,0.00,3,,210
2013-10-13,72,56,41,50,39,32,93,54,23,30.38,30.32,30.19,10,10,10,10,4,16,0.00,0,,4
2013-10-14,70,54,37,46,41,35,95,65,32,30.38,30.28,30.15,10,10,10,9,3,,0.00,0,,81
2013-10-15,65,58,52,64,56,46,97,87,77,30.14,29.99,29.90,10,8,3,14,5,21,0.00,6,Rain,178
2013-10-16,58,48,38,55,44,37,97,78,55,30.01,29.98,29.92,10,10,10,16,8,24,0.00,3,,273
2013-10-17,60,48,37,47,41,36,98,80,41,29.99,29.95,29.91,10,10,7,17,5,23,0.00,4,Rain,239
2013-10-18,63,53,43,45,42,39,90,73,49,30.01,29.98,29.94,10,10,10,16,8,20,0.00,1,,253
2013-10-19,56,48,40,43,38,32,97,76,40,29.98,29.95,29.91,10,10,5,17,5,24,0.14,5,Rain,253
2013-10-20,67,53,39,43,40,35,87,63,37,29.99,29.93,29.88,10,10,7,23,10,32,0.00,1,,199
2013-10-21,54,42,30,47,39,28,91,75,53,30.05,29.97,29.92,10,10,10,14,9,18,0.00,3,Rain,251
2013-10-22,50,38,25,41,33,24,97,80,50,30.05,29.95,29.81,10,10,5,14,3,23,0.00,5,Rain,161
2013-10-23,45,39,34,37,34,30,96,81,58,30.10,30.01,29.85,10,9,5,16,9,21,0.00,8,,295
2013-10-24,43,38,34,35,29,23,92,72,48,30.35,30.20,30.09,10,10,4,17,8,26,0.00,8,,290
2013-10-25,51,37,23,30,25,21,93,65,37,30.49,30.38,30.23,10,10,10,12,6,9,0.00,0,,252
2013-10-26,62,47,34,38,31,26,83,60,41,30.22,30.07,29.95,10,10,10,22,12,31,0.00,3,,248
2013-10-27,58,42,25,34,28,25,96,71,30,30.12,30.09,30.05,10,10,5,10,2,,0.00,0,,246
2013-10-28,63,44,26,37,30,25,97,64,28,30.31,30.22,30.09,10,10,5,7,1,,0.00,0,,117
2013-10-29,55,44,32,50,42,30,98,82,68,30.32,30.24,30.15,10,9,2,9,2,,0.04,4,Rain,113
2013-10-30,68,59,50,66,59,50,100,99,94,30.14,30.05,29.91,10,4,0,18,7,24,0.02,8,Fog-Rain,149
2013-10-31,64,57,49,64,61,50,100,100,98,29.90,29.59,29.35,10,8,2,26,16,36,0.91,8,Rain,203